Port Colborne, Canada
Current Conditions -  °F | °C
As of 10:53 AM on Monday 22 Dec 2014 (Local Time) from KIAG Reporting Station
Scattered Clouds Scattered Clouds  
Wind Chill: 27°   Ceiling: Unl
Heat Index: 33°   Visibility: 10mi
Dew Point: 23°   Wind: 7mph
Humidity: 66%   Direction: 150°SSE
Pressure: 30.16"   Gusts: NA
Location:  42.89°N, 79.25°W
Report Text: KIAG 221553Z 15006KT 10SM FEW140 SCT200 01/M05 A3016 RMK AO2 SLP228 T00061050
Loading
Personal Weather Stations






























Interactive Weather Map New forecast layout! Learn more

10-Day Weather Forecast

Advertisements
Track Severe Weather on mobile